createdAt,value
2022-11-14T00:01:15.744Z,34.72
2022-11-14T00:04:01.660Z,32.95
2022-11-14T00:06:47.666Z,32.38
2022-11-14T00:09:34.210Z,31.75
2022-11-14T00:12:20.411Z,29.27
2022-11-14T00:15:07.064Z,30.70
2022-11-14T00:17:53.312Z,31.27
2022-11-14T00:20:39.354Z,31.30
2022-11-14T00:23:25.309Z,32.63
2022-11-14T00:26:11.449Z,31.92
2022-11-14T00:28:58.207Z,34.47
2022-11-14T00:31:44.359Z,33.88
2022-11-14T00:34:30.184Z,33.28
2022-11-14T00:37:16.374Z,33.95
2022-11-14T00:40:02.656Z,31.02
2022-11-14T00:42:48.864Z,33.05
2022-11-14T00:45:35.032Z,34.00
2022-11-14T00:48:21.287Z,32.17
2022-11-14T00:51:07.731Z,31.48
2022-11-14T00:53:53.667Z,32.78
2022-11-14T00:56:39.576Z,30.58
2022-11-14T00:59:25.499Z,30.98
2022-11-14T01:02:13.334Z,30.20
2022-11-14T01:05:00.216Z,31.13
2022-11-14T01:07:46.268Z,30.58
2022-11-14T01:10:35.210Z,26.92
2022-11-14T01:13:21.796Z,29.23
2022-11-14T01:16:09.121Z,27.20
2022-11-14T01:18:55.704Z,24.35
2022-11-14T01:21:42.245Z,26.48
2022-11-14T01:24:28.639Z,25.00
2022-11-14T01:27:16.016Z,24.70
2022-11-14T01:30:01.986Z,23.88
2022-11-14T01:32:48.044Z,24.63
2022-11-14T01:35:36.443Z,26.58
2022-11-14T01:38:22.915Z,27.25
2022-11-14T01:41:12.729Z,26.75
2022-11-14T01:43:59.059Z,26.30
2022-11-14T01:46:55.627Z,29.50
2022-11-14T01:49:48.682Z,26.45
2022-11-14T01:52:37.904Z,27.98
2022-11-14T01:55:27.435Z,28.08
2022-11-14T01:58:16.025Z,25.60
2022-11-14T02:01:03.676Z,26.52
2022-11-14T02:03:54.568Z,27.38
2022-11-14T02:06:40.977Z,30.15
2022-11-14T02:09:30.459Z,28.40
2022-11-14T02:12:18.511Z,28.95
2022-11-14T02:15:05.605Z,26.23
2022-11-14T02:17:52.294Z,26.10
2022-11-14T02:20:43.453Z,26.88
2022-11-14T02:23:31.962Z,29.52
2022-11-14T02:26:20.059Z,26.95
2022-11-14T02:29:07.635Z,27.92
2022-11-14T02:34:46.293Z,30.15
2022-11-14T02:37:38.686Z,29.13
2022-11-14T02:40:26.836Z,28.45
2022-11-14T02:43:13.100Z,28.52
2022-11-14T02:46:04.399Z,28.40
2022-11-14T02:48:52.706Z,31.77
2022-11-14T02:51:39.639Z,30.75
2022-11-14T02:54:29.506Z,29.95
2022-11-14T02:57:16.914Z,30.10
2022-11-14T03:00:11.849Z,31.77
2022-11-14T03:03:01.840Z,28.08
2022-11-14T03:05:51.726Z,29.20
2022-11-14T03:08:37.972Z,31.50
2022-11-14T03:11:27.234Z,33.30
2022-11-14T03:14:13.754Z,33.72
2022-11-14T03:17:03.110Z,33.28
2022-11-14T03:19:52.717Z,32.78
2022-11-14T03:22:39.922Z,35.97
2022-11-14T03:25:25.976Z,38.10
2022-11-14T03:28:15.109Z,36.15
2022-11-14T03:34:31.512Z,38.35
2022-11-14T03:37:27.549Z,45.15
2022-11-14T03:40:19.766Z,34.65
2022-11-14T03:43:12.756Z,41.30
2022-11-14T03:46:00.855Z,37.92
2022-11-14T03:48:47.461Z,45.05
2022-11-14T03:51:37.915Z,39.72
2022-11-14T03:54:23.955Z,39.17
2022-11-14T03:57:10.455Z,36.67
2022-11-14T03:59:57.205Z,37.78
2022-11-14T04:02:47.667Z,37.05
2022-11-14T04:05:34.069Z,37.35
2022-11-14T04:08:24.835Z,39.95
2022-11-14T04:11:10.870Z,36.70
2022-11-14T04:13:57.211Z,42.00
2022-11-14T04:16:54.897Z,39.53
2022-11-14T04:19:47.670Z,37.83
2022-11-14T04:22:45.629Z,37.00
2022-11-14T04:25:31.532Z,35.90
2022-11-14T04:28:17.577Z,34.03
2022-11-14T04:31:03.732Z,35.78
2022-11-14T04:33:50.140Z,35.58
2022-11-14T04:36:36.320Z,34.50
2022-11-14T04:39:22.413Z,32.03
2022-11-14T04:42:08.862Z,33.58
2022-11-14T04:44:55.555Z,33.80
2022-11-14T04:47:43.510Z,29.58
2022-11-14T04:50:29.369Z,30.73
2022-11-14T04:53:18.897Z,28.52
2022-11-14T04:56:05.130Z,28.83
2022-11-14T04:58:51.378Z,29.30
2022-11-14T05:01:40.879Z,29.38
2022-11-14T05:04:27.331Z,27.77
2022-11-14T05:07:13.849Z,27.10
2022-11-14T05:10:06.701Z,26.73
2022-11-14T05:15:47.213Z,28.58
2022-11-14T05:18:33.759Z,29.38
2022-11-14T05:21:19.877Z,29.05
2022-11-14T05:24:09.833Z,28.02
2022-11-14T05:26:56.404Z,27.67
2022-11-14T05:29:43.325Z,29.77
2022-11-14T05:32:29.795Z,27.48
2022-11-14T05:35:16.220Z,29.20
2022-11-14T05:38:02.796Z,27.25
2022-11-14T05:40:52.057Z,29.23
2022-11-14T05:43:38.878Z,30.15
2022-11-14T05:46:25.210Z,29.10
2022-11-14T05:49:11.333Z,32.70
2022-11-14T05:51:57.987Z,28.40
2022-11-14T05:54:43.889Z,27.00
2022-11-14T05:57:31.090Z,27.33
2022-11-14T06:00:17.559Z,28.45
2022-11-14T06:03:03.823Z,29.58
2022-11-14T06:05:50.053Z,29.27
2022-11-14T06:08:36.655Z,28.40
2022-11-14T06:11:22.812Z,27.40
2022-11-14T06:14:10.989Z,29.08
2022-11-14T06:16:57.256Z,25.75
2022-11-14T06:19:43.279Z,25.60
2022-11-14T06:22:29.371Z,26.65
2022-11-14T06:25:15.222Z,27.33
2022-11-14T06:28:01.529Z,26.17
2022-11-14T06:30:47.858Z,26.35
2022-11-14T06:33:36.176Z,25.88
2022-11-14T06:36:22.284Z,24.92
2022-11-14T06:39:08.694Z,23.45
2022-11-14T06:41:54.448Z,23.55
2022-11-14T06:44:40.761Z,22.65
2022-11-14T06:47:26.738Z,22.27
2022-11-14T06:50:13.063Z,24.40
2022-11-14T06:52:59.391Z,22.27
2022-11-14T06:55:58.183Z,22.67
2022-11-14T06:58:49.376Z,22.95
2022-11-14T07:01:35.477Z,24.52
2022-11-14T07:04:21.534Z,21.85
2022-11-14T07:07:07.641Z,24.95
2022-11-14T07:09:56.576Z,24.20
2022-11-14T07:12:42.993Z,25.17
2022-11-14T07:15:29.163Z,22.48
2022-11-14T07:18:15.216Z,23.70
2022-11-14T07:21:04.459Z,20.40
2022-11-14T07:23:50.498Z,21.65
2022-11-14T07:26:36.608Z,20.73
2022-11-14T07:29:22.505Z,18.95
2022-11-14T07:32:08.667Z,22.33
2022-11-14T07:35:00.732Z,20.75
2022-11-14T07:37:48.730Z,23.75
2022-11-14T07:40:35.287Z,24.45
2022-11-14T07:43:21.634Z,21.25
2022-11-14T07:46:13.070Z,25.35
2022-11-14T07:48:59.431Z,23.27
2022-11-14T07:51:45.515Z,24.00
2022-11-14T07:54:31.780Z,29.88
2022-11-14T07:57:18.094Z,23.23
2022-11-14T08:00:04.625Z,25.88
2022-11-14T08:02:50.794Z,26.30
2022-11-14T08:05:37.182Z,24.70
2022-11-14T08:08:23.181Z,23.83
2022-11-14T08:11:09.141Z,19.42
2022-11-14T08:13:55.090Z,19.83
2022-11-14T08:16:41.238Z,18.10
2022-11-14T08:19:27.380Z,17.48
2022-11-14T08:22:13.349Z,19.40
2022-11-14T08:24:59.535Z,16.77
2022-11-14T08:27:48.148Z,21.95
2022-11-14T08:30:34.343Z,20.85
2022-11-14T08:33:20.504Z,21.42
2022-11-14T08:36:07.729Z,20.58
2022-11-14T08:38:58.912Z,19.65
2022-11-14T08:41:48.117Z,22.23
2022-11-14T08:44:34.003Z,20.05
2022-11-14T08:47:21.448Z,23.23
2022-11-14T08:50:08.139Z,20.60
2022-11-14T08:52:54.393Z,20.17
2022-11-14T08:55:47.542Z,20.17
2022-11-14T08:58:34.249Z,21.00
2022-11-14T09:01:20.360Z,20.42
2022-11-14T09:04:06.711Z,22.02
2022-11-14T09:06:53.112Z,20.83
2022-11-14T09:09:39.792Z,22.48
2022-11-14T09:12:25.707Z,19.92
2022-11-14T09:15:11.899Z,14.88
2022-11-14T09:17:58.721Z,16.48
2022-11-14T09:20:44.666Z,16.85
2022-11-14T09:23:31.506Z,14.43
2022-11-14T09:26:21.256Z,17.38
2022-11-14T09:29:08.927Z,17.25
2022-11-14T09:31:56.848Z,15.13
2022-11-14T09:34:45.345Z,14.50
2022-11-14T09:37:31.742Z,15.35
2022-11-14T09:40:18.091Z,11.38
2022-11-14T09:43:18.486Z,13.40
2022-11-14T09:46:05.791Z,13.15
2022-11-14T09:48:53.903Z,14.07
2022-11-14T09:51:48.484Z,17.48
2022-11-14T09:54:54.659Z,18.33
2022-11-14T09:57:45.146Z,19.08
2022-11-14T10:01:08.898Z,16.65
2022-11-14T10:03:55.648Z,17.40
2022-11-14T10:07:26.061Z,17.98
2022-11-14T10:10:34.466Z,20.90
2022-11-14T10:13:27.486Z,22.67
2022-11-14T10:16:35.579Z,17.73
2022-11-14T10:19:41.419Z,18.10
2022-11-14T10:22:34.493Z,15.50
2022-11-14T10:26:04.488Z,15.75
2022-11-14T10:29:25.713Z,16.02
2022-11-14T10:32:39.927Z,17.08
2022-11-14T10:35:38.300Z,15.98
2022-11-14T10:38:37.062Z,16.38
2022-11-14T10:41:55.021Z,16.80
2022-11-14T10:44:50.634Z,16.63
2022-11-14T10:47:41.336Z,18.00
2022-11-14T10:50:44.275Z,19.42
2022-11-14T10:53:33.164Z,15.30
2022-11-14T10:56:19.146Z,14.93
2022-11-14T10:59:08.929Z,15.68
2022-11-14T11:01:57.721Z,17.23
2022-11-14T11:04:45.235Z,16.20
2022-11-14T11:07:50.113Z,16.58
2022-11-14T11:11:01.284Z,14.20
2022-11-14T11:13:59.636Z,15.13
2022-11-14T11:16:47.777Z,16.27
2022-11-14T11:19:34.127Z,14.18
2022-11-14T11:22:26.167Z,14.02
2022-11-14T11:25:31.615Z,14.15
2022-11-14T11:28:20.330Z,15.05
2022-11-14T11:31:08.644Z,13.63
2022-11-14T11:33:55.291Z,13.68
2022-11-14T11:36:47.308Z,15.77
2022-11-14T11:39:40.262Z,15.68
2022-11-14T11:43:31.779Z,15.40
2022-11-14T11:45:49.394Z,15.93
2022-11-14T11:48:39.319Z,13.68
2022-11-14T11:51:27.706Z,15.40
2022-11-14T11:54:24.528Z,14.95
2022-11-14T11:57:20.270Z,14.57
2022-11-14T12:00:16.252Z,15.32
2022-11-14T12:03:02.811Z,15.32
2022-11-14T12:05:54.837Z,15.52
2022-11-14T12:09:07.570Z,16.35
2022-11-14T12:12:26.445Z,16.70
2022-11-14T12:15:28.155Z,16.55
2022-11-14T12:18:41.069Z,16.58
2022-11-14T12:21:59.022Z,16.23
2022-11-14T12:25:14.176Z,15.93
2022-11-14T12:28:26.798Z,15.90
2022-11-14T12:31:17.019Z,15.27
2022-11-14T12:34:13.884Z,14.70
2022-11-14T12:37:00.389Z,15.75
2022-11-14T12:40:00.708Z,15.00
2022-11-14T12:42:48.592Z,14.77
2022-11-14T12:45:40.528Z,14.52
2022-11-14T12:48:26.923Z,16.17
2022-11-14T12:51:28.165Z,14.73
2022-11-14T12:54:44.559Z,14.15
2022-11-14T12:58:06.307Z,14.93
2022-11-14T13:01:00.034Z,16.40
2022-11-14T13:04:23.303Z,16.00
2022-11-14T13:07:33.932Z,14.55
2022-11-14T13:13:36.265Z,14.02
2022-11-14T13:16:44.414Z,13.70
2022-11-14T13:19:49.473Z,14.13
2022-11-14T13:22:44.245Z,15.40
2022-11-14T13:25:30.630Z,16.02
2022-11-14T13:28:39.125Z,17.55
2022-11-14T13:31:37.304Z,16.08
2022-11-14T13:34:49.781Z,13.93
2022-11-14T13:37:54.045Z,15.85
2022-11-14T13:41:01.802Z,15.80
2022-11-14T13:44:14.632Z,17.25
2022-11-14T13:47:26.679Z,16.00
2022-11-14T13:50:18.951Z,15.95
2022-11-14T13:53:23.915Z,17.75
2022-11-14T13:56:24.285Z,17.77
2022-11-14T13:59:46.567Z,17.92
2022-11-14T14:03:07.476Z,17.80
2022-11-14T14:06:19.562Z,16.73
2022-11-14T14:09:22.818Z,15.68
2022-11-14T14:12:26.759Z,16.38
2022-11-14T14:15:18.304Z,17.23
2022-11-14T14:18:40.078Z,17.27
2022-11-14T14:21:53.400Z,17.23
2022-11-14T14:24:51.342Z,17.30
2022-11-14T14:28:01.683Z,18.27
2022-11-14T14:31:03.513Z,17.85
2022-11-14T14:33:52.694Z,17.88
2022-11-14T14:36:50.234Z,18.20
2022-11-14T14:39:36.315Z,16.45
2022-11-14T14:42:22.655Z,17.83
2022-11-14T14:45:18.995Z,16.77
2022-11-14T14:48:15.365Z,16.65
2022-11-14T14:51:07.121Z,17.70
2022-11-14T14:53:54.012Z,17.33
2022-11-14T14:56:40.132Z,17.05
2022-11-14T14:59:28.864Z,16.90
2022-11-14T15:02:18.338Z,17.00
2022-11-14T15:05:05.510Z,20.73
2022-11-14T15:07:55.387Z,18.25
2022-11-14T15:10:42.084Z,19.83
2022-11-14T15:13:30.689Z,19.42
2022-11-14T15:16:17.479Z,19.75
2022-11-14T15:19:04.966Z,21.08
2022-11-14T15:22:24.177Z,20.75
2022-11-14T15:25:13.464Z,21.65
2022-11-14T15:28:00.645Z,24.50
2022-11-14T15:30:59.539Z,24.23
2022-11-14T15:33:49.949Z,24.35
2022-11-14T15:36:36.562Z,24.08
2022-11-14T15:39:29.299Z,24.15
2022-11-14T15:42:18.122Z,24.25
2022-11-14T15:45:39.392Z,25.38
2022-11-14T15:48:25.448Z,24.77
2022-11-14T15:51:12.287Z,24.48
2022-11-14T15:53:58.608Z,25.02
2022-11-14T15:56:44.817Z,24.83
2022-11-14T15:59:31.226Z,23.67
2022-11-14T16:02:21.642Z,26.30
2022-11-14T16:05:12.618Z,28.65
2022-11-14T16:07:58.927Z,27.02
2022-11-14T16:10:45.426Z,27.08
2022-11-14T16:13:31.690Z,27.92
2022-11-14T16:16:18.255Z,27.15
2022-11-14T16:19:05.311Z,26.55
2022-11-14T16:21:54.345Z,31.40
2022-11-14T16:24:40.485Z,32.53
2022-11-14T16:27:26.823Z,29.92
2022-11-14T16:30:14.866Z,34.78
2022-11-14T16:33:01.110Z,30.95
2022-11-14T16:35:47.087Z,31.83
2022-11-14T16:38:36.398Z,31.48
2022-11-14T16:41:23.593Z,34.70
2022-11-14T16:44:18.749Z,33.53
2022-11-14T16:47:05.093Z,31.65
2022-11-14T16:49:54.420Z,31.95
2022-11-14T16:52:40.566Z,31.83
2022-11-14T16:55:26.839Z,31.80
2022-11-14T16:58:12.654Z,31.10
2022-11-14T17:00:58.978Z,30.45
2022-11-14T17:03:46.204Z,30.25
2022-11-14T17:06:32.441Z,31.25
2022-11-14T17:09:18.789Z,30.00
2022-11-14T17:12:05.383Z,30.15
2022-11-14T17:14:51.592Z,34.42
2022-11-14T17:17:37.895Z,34.35
2022-11-14T17:32:47.298Z,38.00
2022-11-14T17:35:35.795Z,34.25
2022-11-14T17:38:21.797Z,33.25
2022-11-14T17:41:08.089Z,34.20
2022-11-14T17:44:01.936Z,34.13
2022-11-14T17:46:51.394Z,33.47
2022-11-14T17:49:40.668Z,33.13
2022-11-14T17:52:58.660Z,31.23
2022-11-14T17:55:47.046Z,31.38
2022-11-14T17:58:37.845Z,33.08
2022-11-14T18:01:25.427Z,33.60
2022-11-14T18:04:20.707Z,33.25
2022-11-14T18:07:08.175Z,35.78
2022-11-14T18:10:13.147Z,33.78
2022-11-14T18:13:14.131Z,35.08
2022-11-14T18:16:09.466Z,37.20
2022-11-14T18:18:59.257Z,33.67
2022-11-14T18:21:53.585Z,32.15
2022-11-14T18:24:43.685Z,29.63
2022-11-14T18:27:41.986Z,31.88
2022-11-14T18:30:42.348Z,31.00
2022-11-14T18:36:15.999Z,28.25
2022-11-14T18:39:03.096Z,27.33
2022-11-14T18:41:49.747Z,26.13
2022-11-14T18:44:36.331Z,26.50
2022-11-14T18:47:27.091Z,28.25
2022-11-14T18:52:59.574Z,24.90
2022-11-14T18:55:49.684Z,23.30
2022-11-14T18:58:39.716Z,20.93
2022-11-14T19:01:35.301Z,20.38
2022-11-14T19:04:22.644Z,20.08
2022-11-14T19:07:15.333Z,18.35
2022-11-14T19:10:01.474Z,17.85
2022-11-14T19:12:48.967Z,16.90
2022-11-14T19:15:35.401Z,17.48
2022-11-14T19:18:21.847Z,17.77
2022-11-14T19:21:08.162Z,17.33
2022-11-14T19:23:55.377Z,17.90
2022-11-14T19:26:42.223Z,17.75
2022-11-14T19:29:29.771Z,21.50
2022-11-14T19:32:15.852Z,18.88
2022-11-14T19:35:02.107Z,18.85
2022-11-14T19:37:48.967Z,16.88
2022-11-14T19:40:37.971Z,17.77
2022-11-14T19:43:26.580Z,16.83
2022-11-14T19:46:13.380Z,15.25
2022-11-14T19:49:00.782Z,15.05
2022-11-14T19:51:47.559Z,14.18
2022-11-14T19:54:33.949Z,13.48
2022-11-14T19:57:30.066Z,10.90
2022-11-14T20:00:27.885Z,8.43
2022-11-14T20:03:22.736Z,8.18
2022-11-14T20:06:25.485Z,7.13
2022-11-14T20:09:21.194Z,7.40
2022-11-14T20:12:07.744Z,7.10
2022-11-14T20:14:53.850Z,6.53
2022-11-14T20:17:52.026Z,6.63
2022-11-14T20:20:38.319Z,6.78
2022-11-14T20:23:24.473Z,6.78
2022-11-14T20:26:11.850Z,7.03
2022-11-14T20:29:00.120Z,7.43
2022-11-14T20:31:52.316Z,9.05
2022-11-14T20:34:39.405Z,7.93
2022-11-14T20:37:25.333Z,8.05
2022-11-14T20:40:12.347Z,6.13
2022-11-14T20:43:01.458Z,5.88
2022-11-14T20:46:13.828Z,6.50
2022-11-14T20:49:04.421Z,5.00
2022-11-14T20:51:55.500Z,5.40
2022-11-14T20:54:41.574Z,6.35
2022-11-14T20:57:31.659Z,6.22
2022-11-14T21:00:20.174Z,6.30
2022-11-14T21:03:12.763Z,6.32
2022-11-14T21:06:01.463Z,6.00
2022-11-14T21:08:50.394Z,6.45
2022-11-14T21:11:40.841Z,5.60
2022-11-14T21:14:28.630Z,4.40
2022-11-14T21:17:15.387Z,4.47
2022-11-14T21:20:02.128Z,4.35
2022-11-14T21:22:51.116Z,3.90
2022-11-14T21:25:39.605Z,2.85
2022-11-14T21:28:25.799Z,2.67
2022-11-14T21:31:16.219Z,3.15
2022-11-14T21:34:08.046Z,3.03
2022-11-14T21:36:54.297Z,2.53
2022-11-14T21:39:43.459Z,2.67
2022-11-14T21:43:15.800Z,2.40
2022-11-14T21:46:10.020Z,2.80
2022-11-14T21:49:04.371Z,3.72
2022-11-14T21:51:50.875Z,2.80
2022-11-14T21:54:37.604Z,3.10
2022-11-14T21:57:24.052Z,3.60
2022-11-14T22:00:15.196Z,3.00
2022-11-14T22:03:20.033Z,3.42
2022-11-14T22:06:06.767Z,2.92
2022-11-14T22:08:54.725Z,2.47
2022-11-14T22:11:41.056Z,2.20
2022-11-14T22:14:27.595Z,2.30
2022-11-14T22:17:16.573Z,2.65
2022-11-14T22:20:12.164Z,4.47
2022-11-14T22:22:58.872Z,2.15
2022-11-14T22:25:53.612Z,2.28
2022-11-14T22:28:40.632Z,2.30
2022-11-14T22:31:27.001Z,2.00
2022-11-14T22:34:13.202Z,2.50
2022-11-14T22:36:59.913Z,1.98
2022-11-14T22:39:46.217Z,2.28
2022-11-14T22:42:34.861Z,3.20
2022-11-14T22:45:23.425Z,3.47
2022-11-14T22:48:09.434Z,2.22
2022-11-14T22:50:59.917Z,3.75
2022-11-14T22:53:57.252Z,2.42
2022-11-14T22:56:43.556Z,2.05
2022-11-14T22:59:29.880Z,2.08
2022-11-14T23:02:16.308Z,1.95
2022-11-14T23:05:02.618Z,1.83
2022-11-14T23:07:48.989Z,2.40
2022-11-14T23:10:35.361Z,2.40
2022-11-14T23:13:37.191Z,2.40
2022-11-14T23:16:31.667Z,2.28
2022-11-14T23:19:19.036Z,2.35
2022-11-14T23:22:05.243Z,3.42
2022-11-14T23:24:51.223Z,2.00
2022-11-14T23:27:39.149Z,2.75
2022-11-14T23:30:27.104Z,2.95
2022-11-14T23:33:13.928Z,3.35
2022-11-14T23:36:01.142Z,2.88
2022-11-14T23:38:49.317Z,2.35
2022-11-14T23:41:37.551Z,1.85
2022-11-14T23:44:24.928Z,2.50
2022-11-14T23:47:14.783Z,2.33
2022-11-14T23:50:01.188Z,3.08
2022-11-14T23:52:52.463Z,2.78
2022-11-14T23:55:42.199Z,2.28
2022-11-14T23:58:33.515Z,5.97
